Language selection

Features

My Weather Profile Weather Topics  | 

Central Coast from McInnes Island to Pine Island: Past 24 Hour Conditions

 

Rose Spit

05:00 AM PST 22 November 2019
Disclaimer

This table is a summary of hourly weather conditions for the past 24 hours.
Please note that these observations might not always be representative of weather conditions over their associated marine area.

Date / Time
(PST)
Wind(knots) Conditions Visibility(km) Pressure(kPa) Air tempC) Relative humidity(%) Dew pointC)
22 November 2019
5:00 S 16 gust 22 N/A N/A 100.8 10 99 10
4:00 S 21 N/A N/A 100.8 10 98 10
3:00 SSE 28 N/A N/A 100.8 10 98 9
2:00 SSE 29 N/A N/A 100.8 9 96 9
1:00 SSE 29 N/A N/A 100.8 9 94 8
0:00 SSE 24 N/A N/A 100.9 9 95 8
21 November 2019
23:00 SSE 16 N/A N/A 101.0 8 95 8
22:00 S 8 N/A N/A 100.9 7 97 7
21:00 WSW 15 gust 20 N/A N/A 100.9 8 96 8
20:00 WSW 24 gust 30 N/A N/A 100.7 8 98 8
19:00 WNW 6 N/A N/A 100.6 8 99 8
18:00 WNW 9 N/A N/A 100.4 8 99 8
17:00 WSW 6 N/A N/A 100.3 9 99 9
16:00 SSE 14 gust 22 N/A N/A 100.2 9 98 9
15:00 ESE 25 gust 30 N/A N/A 100.2 9 97 8
14:00 ESE 29 gust 37 N/A N/A 100.2 8 96 8
13:00 SE 32 gust 39 N/A N/A 100.3 8 95 8
12:00 SE 35 gust 42 N/A N/A 100.4 9 94 8
11:00 SE 32 gust 37 N/A N/A 100.5 9 90 8
10:00 SE 30 gust 37 N/A N/A 100.6 10 89 8
9:00 SE 27 gust 36 N/A N/A 100.6 9 91 8
8:00 SE 25 gust 31 N/A N/A 100.7 9 91 8
7:00 SE 24 gust 30 N/A N/A 100.8 9 91 8
6:00 SE 23 gust 31 N/A N/A 100.8 9 90 7
5:00 SSE 26 gust 32 N/A N/A 100.9 9 89 7

Zoom-in to make a selection

Map of Pacific - North Coast marine weather areas Middle Nomad - 46004 South Nomad - 46036 Dixon Entrance Central - 46145 South Moresby - 46147 Nanakwa Shoal - 46181 North Hecate Strait - 46183 North Nomad - 46184 South Hecate Strait - 46185 West Sea Otter - 46204 West Dixon Entrance - 46205 East Dellwood - 46207 West Moresby - 46208 Sartine Island Cape St.James Kindakun Rocks Langara Island Masset Municipal Airport Rose Spit Sandspit Airport Bella Bella Airport Bella Coola Airport Bonilla Island Cathedral Point Cumshewa Island Grey Islet Holland Rock Lucy Islands Lightstation Prince Rupert Airport
Legend:
buoy Buoy
land station Land Station

Pacific - North Coast Area

Another Region

What we are doing

Date modified: